sensor_id;sensor_type;location;lat;lon;timestamp;temperature;humidity
42833;DHT22;64089;51.478;5.692;2023-12-20T00:00:55;7.70;99.90
42833;DHT22;64089;51.478;5.692;2023-12-20T00:03:21;7.60;99.90
42833;DHT22;64089;51.478;5.692;2023-12-20T00:05:47;7.60;99.90
42833;DHT22;64089;51.478;5.692;2023-12-20T00:08:13;7.50;99.90
42833;DHT22;64089;51.478;5.692;2023-12-20T00:10:39;7.50;99.90
42833;DHT22;64089;51.478;5.692;2023-12-20T00:13:04;7.50;99.90
42833;DHT22;64089;51.478;5.692;2023-12-20T00:15:30;7.40;99.90
42833;DHT22;64089;51.478;5.692;2023-12-20T00:17:55;7.40;99.90
42833;DHT22;64089;51.478;5.692;2023-12-20T00:20:21;7.30;99.90
42833;DHT22;64089;51.478;5.692;2023-12-20T00:22:47;7.30;99.90
42833;DHT22;64089;51.478;5.692;2023-12-20T00:25:12;7.20;99.90
42833;DHT22;64089;51.478;5.692;2023-12-20T00:27:38;7.10;99.90
42833;DHT22;64089;51.478;5.692;2023-12-20T00:30:04;7.10;99.90
42833;DHT22;64089;51.478;5.692;2023-12-20T00:32:30;7.10;99.90
42833;DHT22;64089;51.478;5.692;2023-12-20T00:34:55;7.00;99.90
42833;DHT22;64089;51.478;5.692;2023-12-20T00:37:21;7.00;99.90
42833;DHT22;64089;51.478;5.692;2023-12-20T00:39:48;7.00;99.90
42833;DHT22;64089;51.478;5.692;2023-12-20T00:42:13;6.90;99.90
42833;DHT22;64089;51.478;5.692;2023-12-20T00:44:39;7.00;99.90
42833;DHT22;64089;51.478;5.692;2023-12-20T00:47:06;6.90;99.90
42833;DHT22;64089;51.478;5.692;2023-12-20T00:49:31;6.80;99.90
42833;DHT22;64089;51.478;5.692;2023-12-20T00:51:57;6.80;99.90
42833;DHT22;64089;51.478;5.692;2023-12-20T00:54:22;6.80;99.90
42833;DHT22;64089;51.478;5.692;2023-12-20T00:56:48;6.70;99.90
42833;DHT22;64089;51.478;5.692;2023-12-20T00:59:15;6.80;99.90
42833;DHT22;64089;51.478;5.692;2023-12-20T01:01:41;6.70;99.90
42833;DHT22;64089;51.478;5.692;2023-12-20T01:04:07;6.70;99.90
42833;DHT22;64089;51.478;5.692;2023-12-20T01:06:33;6.60;99.90
42833;DHT22;64089;51.478;5.692;2023-12-20T01:08:58;6.60;99.90
42833;DHT22;64089;51.478;5.692;2023-12-20T01:11:24;6.60;99.90
42833;DHT22;64089;51.478;5.692;2023-12-20T01:13:49;6.50;99.90
42833;DHT22;64089;51.478;5.692;2023-12-20T01:16:15;6.50;99.90
42833;DHT22;64089;51.478;5.692;2023-12-20T01:18:41;6.40;99.90
42833;DHT22;64089;51.478;5.692;2023-12-20T01:21:06;6.40;99.90
42833;DHT22;64089;51.478;5.692;2023-12-20T01:23:32;6.40;99.90
42833;DHT22;64089;51.478;5.692;2023-12-20T01:25:58;6.30;99.90
42833;DHT22;64089;51.478;5.692;2023-12-20T01:28:25;6.30;99.90
42833;DHT22;64089;51.478;5.692;2023-12-20T01:30:51;6.30;99.90
42833;DHT22;64089;51.478;5.692;2023-12-20T01:33:16;6.30;99.90
42833;DHT22;64089;51.478;5.692;2023-12-20T01:35:42;6.30;99.90
42833;DHT22;64089;51.478;5.692;2023-12-20T01:38:08;6.30;99.90
42833;DHT22;64089;51.478;5.692;2023-12-20T01:40:34;6.30;99.90
42833;DHT22;64089;51.478;5.692;2023-12-20T01:43:01;6.30;99.90
42833;DHT22;64089;51.478;5.692;2023-12-20T01:45:27;6.40;99.90
42833;DHT22;64089;51.478;5.692;2023-12-20T01:47:54;6.40;99.90
42833;DHT22;64089;51.478;5.692;2023-12-20T01:50:21;6.40;99.90
42833;DHT22;64089;51.478;5.692;2023-12-20T01:52:47;6.40;99.90
42833;DHT22;64089;51.478;5.692;2023-12-20T01:55:13;6.40;99.90
42833;DHT22;64089;51.478;5.692;2023-12-20T01:57:44;6.40;99.90
42833;DHT22;64089;51.478;5.692;2023-12-20T02:00:11;6.50;99.90
42833;DHT22;64089;51.478;5.692;2023-12-20T02:02:39;6.50;99.90
42833;DHT22;64089;51.478;5.692;2023-12-20T02:05:09;6.50;99.90
42833;DHT22;64089;51.478;5.692;2023-12-20T02:07:35;6.60;99.90
42833;DHT22;64089;51.478;5.692;2023-12-20T02:10:03;6.60;99.90
42833;DHT22;64089;51.478;5.692;2023-12-20T02:12:30;6.50;99.90
42833;DHT22;64089;51.478;5.692;2023-12-20T02:14:55;6.50;99.90
42833;DHT22;64089;51.478;5.692;2023-12-20T02:17:22;6.50;99.90
42833;DHT22;64089;51.478;5.692;2023-12-20T02:19:47;6.50;99.90
42833;DHT22;64089;51.478;5.692;2023-12-20T02:22:13;6.40;99.90
42833;DHT22;64089;51.478;5.692;2023-12-20T02:24:39;6.40;99.90
42833;DHT22;64089;51.478;5.692;2023-12-20T02:27:07;6.40;99.90
42833;DHT22;64089;51.478;5.692;2023-12-20T02:29:33;6.40;99.90
42833;DHT22;64089;51.478;5.692;2023-12-20T02:31:59;6.40;99.90
42833;DHT22;64089;51.478;5.692;2023-12-20T02:34:25;6.40;99.90
42833;DHT22;64089;51.478;5.692;2023-12-20T02:36:50;6.40;99.90
42833;DHT22;64089;51.478;5.692;2023-12-20T02:39:16;6.40;99.90
42833;DHT22;64089;51.478;5.692;2023-12-20T02:41:42;6.50;99.90
42833;DHT22;64089;51.478;5.692;2023-12-20T02:44:08;6.40;99.90
42833;DHT22;64089;51.478;5.692;2023-12-20T02:46:33;6.40;99.90
42833;DHT22;64089;51.478;5.692;2023-12-20T02:48:59;6.40;99.90
42833;DHT22;64089;51.478;5.692;2023-12-20T02:51:24;6.40;99.90
42833;DHT22;64089;51.478;5.692;2023-12-20T02:53:50;6.30;99.90
42833;DHT22;64089;51.478;5.692;2023-12-20T02:56:16;6.40;99.90
42833;DHT22;64089;51.478;5.692;2023-12-20T02:58:41;6.40;99.90
42833;DHT22;64089;51.478;5.692;2023-12-20T03:01:07;6.30;99.90
42833;DHT22;64089;51.478;5.692;2023-12-20T03:03:32;6.30;99.90
42833;DHT22;64089;51.478;5.692;2023-12-20T03:05:59;6.30;99.90
42833;DHT22;64089;51.478;5.692;2023-12-20T03:08:25;6.40;99.90
42833;DHT22;64089;51.478;5.692;2023-12-20T03:10:50;6.40;99.90
42833;DHT22;64089;51.478;5.692;2023-12-20T03:13:16;6.30;99.90
42833;DHT22;64089;51.478;5.692;2023-12-20T03:15:42;6.40;99.90
42833;DHT22;64089;51.478;5.692;2023-12-20T03:18:07;6.40;99.90
42833;DHT22;64089;51.478;5.692;2023-12-20T03:20:33;6.40;99.90
42833;DHT22;64089;51.478;5.692;2023-12-20T03:23:02;6.40;99.90
42833;DHT22;64089;51.478;5.692;2023-12-20T03:25:28;6.50;99.90
42833;DHT22;64089;51.478;5.692;2023-12-20T03:27:54;6.50;99.90
42833;DHT22;64089;51.478;5.692;2023-12-20T03:30:19;6.60;99.90
42833;DHT22;64089;51.478;5.692;2023-12-20T03:32:45;6.60;99.90
42833;DHT22;64089;51.478;5.692;2023-12-20T03:35:11;6.60;99.90
42833;DHT22;64089;51.478;5.692;2023-12-20T03:37:36;6.60;99.90
42833;DHT22;64089;51.478;5.692;2023-12-20T03:40:02;6.50;99.90
42833;DHT22;64089;51.478;5.692;2023-12-20T03:42:28;6.50;99.90
42833;DHT22;64089;51.478;5.692;2023-12-20T03:44:54;6.40;99.90
42833;DHT22;64089;51.478;5.692;2023-12-20T03:47:19;6.30;99.90
42833;DHT22;64089;51.478;5.692;2023-12-20T03:49:45;6.30;99.90
42833;DHT22;64089;51.478;5.692;2023-12-20T03:52:10;6.30;99.90
42833;DHT22;64089;51.478;5.692;2023-12-20T03:54:36;6.30;99.90
42833;DHT22;64089;51.478;5.692;2023-12-20T03:57:01;6.30;99.90
42833;DHT22;64089;51.478;5.692;2023-12-20T03:59:27;6.40;99.90
42833;DHT22;64089;51.478;5.692;2023-12-20T04:01:53;6.40;99.90
42833;DHT22;64089;51.478;5.692;2023-12-20T04:04:19;6.40;99.90
42833;DHT22;64089;51.478;5.692;2023-12-20T04:06:44;6.50;99.90
42833;DHT22;64089;51.478;5.692;2023-12-20T04:09:10;6.50;99.90
42833;DHT22;64089;51.478;5.692;2023-12-20T04:11:36;6.60;99.90
42833;DHT22;64089;51.478;5.692;2023-12-20T04:14:02;6.60;99.90
42833;DHT22;64089;51.478;5.692;2023-12-20T04:16:27;6.60;99.90
42833;DHT22;64089;51.478;5.692;2023-12-20T04:18:53;6.60;99.90
42833;DHT22;64089;51.478;5.692;2023-12-20T04:21:19;6.70;99.90
42833;DHT22;64089;51.478;5.692;2023-12-20T04:23:44;6.70;99.90
42833;DHT22;64089;51.478;5.692;2023-12-20T04:26:10;6.70;99.90
42833;DHT22;64089;51.478;5.692;2023-12-20T04:28:36;6.70;99.90
42833;DHT22;64089;51.478;5.692;2023-12-20T04:31:01;6.70;99.90
42833;DHT22;64089;51.478;5.692;2023-12-20T04:33:27;6.70;99.90
42833;DHT22;64089;51.478;5.692;2023-12-20T04:35:53;6.70;99.90
42833;DHT22;64089;51.478;5.692;2023-12-20T04:38:18;6.80;99.90
42833;DHT22;64089;51.478;5.692;2023-12-20T04:40:44;6.70;99.90
42833;DHT22;64089;51.478;5.692;2023-12-20T04:43:09;6.70;99.90
42833;DHT22;64089;51.478;5.692;2023-12-20T04:45:35;6.80;99.90
42833;DHT22;64089;51.478;5.692;2023-12-20T04:48:02;6.80;99.90
42833;DHT22;64089;51.478;5.692;2023-12-20T04:50:28;6.80;99.90
42833;DHT22;64089;51.478;5.692;2023-12-20T04:52:53;6.80;99.90
42833;DHT22;64089;51.478;5.692;2023-12-20T04:55:19;6.80;99.90
42833;DHT22;64089;51.478;5.692;2023-12-20T04:57:45;6.80;99.90
42833;DHT22;64089;51.478;5.692;2023-12-20T05:00:13;6.90;99.90
42833;DHT22;64089;51.478;5.692;2023-12-20T05:02:41;6.90;99.90
42833;DHT22;64089;51.478;5.692;2023-12-20T05:05:07;6.90;99.90
42833;DHT22;64089;51.478;5.692;2023-12-20T05:07:33;6.90;99.90
42833;DHT22;64089;51.478;5.692;2023-12-20T05:09:59;6.90;99.90
42833;DHT22;64089;51.478;5.692;2023-12-20T05:12:25;6.90;99.90
42833;DHT22;64089;51.478;5.692;2023-12-20T05:14:52;6.90;99.90
42833;DHT22;64089;51.478;5.692;2023-12-20T05:17:17;6.90;99.90
42833;DHT22;64089;51.478;5.692;2023-12-20T05:19:43;6.90;99.90
42833;DHT22;64089;51.478;5.692;2023-12-20T05:22:09;7.00;99.90
42833;DHT22;64089;51.478;5.692;2023-12-20T05:24:35;7.00;99.90
42833;DHT22;64089;51.478;5.692;2023-12-20T05:27:00;6.90;99.90
42833;DHT22;64089;51.478;5.692;2023-12-20T05:29:26;7.00;99.90
42833;DHT22;64089;51.478;5.692;2023-12-20T05:31:51;7.00;99.90
42833;DHT22;64089;51.478;5.692;2023-12-20T05:34:17;7.00;99.90
42833;DHT22;64089;51.478;5.692;2023-12-20T05:36:43;7.00;99.90
42833;DHT22;64089;51.478;5.692;2023-12-20T05:39:08;7.00;99.90
42833;DHT22;64089;51.478;5.692;2023-12-20T05:41:34;7.00;99.90
42833;DHT22;64089;51.478;5.692;2023-12-20T05:43:59;7.00;99.90
42833;DHT22;64089;51.478;5.692;2023-12-20T05:46:25;7.00;99.90
42833;DHT22;64089;51.478;5.692;2023-12-20T05:48:51;7.00;99.90
42833;DHT22;64089;51.478;5.692;2023-12-20T05:51:17;7.00;99.90
42833;DHT22;64089;51.478;5.692;2023-12-20T05:53:43;7.10;99.90
42833;DHT22;64089;51.478;5.692;2023-12-20T05:56:10;7.10;99.90
42833;DHT22;64089;51.478;5.692;2023-12-20T05:58:35;7.20;99.90
42833;DHT22;64089;51.478;5.692;2023-12-20T06:01:04;7.20;99.90
42833;DHT22;64089;51.478;5.692;2023-12-20T06:03:29;7.10;99.90
42833;DHT22;64089;51.478;5.692;2023-12-20T06:05:55;7.20;99.90
42833;DHT22;64089;51.478;5.692;2023-12-20T06:08:21;7.20;99.90
42833;DHT22;64089;51.478;5.692;2023-12-20T06:10:46;7.20;99.90
42833;DHT22;64089;51.478;5.692;2023-12-20T06:13:12;7.10;99.90
42833;DHT22;64089;51.478;5.692;2023-12-20T06:15:39;7.10;99.90
42833;DHT22;64089;51.478;5.692;2023-12-20T06:18:06;7.10;99.90
42833;DHT22;64089;51.478;5.692;2023-12-20T06:20:32;7.10;99.90
42833;DHT22;64089;51.478;5.692;2023-12-20T06:22:57;7.10;99.90
42833;DHT22;64089;51.478;5.692;2023-12-20T06:25:23;7.10;99.90
42833;DHT22;64089;51.478;5.692;2023-12-20T06:27:49;7.10;99.90
42833;DHT22;64089;51.478;5.692;2023-12-20T06:30:15;7.20;99.90
42833;DHT22;64089;51.478;5.692;2023-12-20T06:32:41;7.10;99.90
42833;DHT22;64089;51.478;5.692;2023-12-20T06:35:11;7.20;99.90
42833;DHT22;64089;51.478;5.692;2023-12-20T06:37:36;7.20;99.90
42833;DHT22;64089;51.478;5.692;2023-12-20T06:40:02;7.10;99.90
42833;DHT22;64089;51.478;5.692;2023-12-20T06:42:27;7.20;99.90
42833;DHT22;64089;51.478;5.692;2023-12-20T06:44:53;7.10;99.90
42833;DHT22;64089;51.478;5.692;2023-12-20T06:47:19;7.10;99.90
42833;DHT22;64089;51.478;5.692;2023-12-20T06:49:44;7.10;99.90
42833;DHT22;64089;51.478;5.692;2023-12-20T06:52:10;7.00;99.90
42833;DHT22;64089;51.478;5.692;2023-12-20T06:54:35;6.90;99.90
42833;DHT22;64089;51.478;5.692;2023-12-20T06:57:01;6.90;99.90
42833;DHT22;64089;51.478;5.692;2023-12-20T06:59:28;6.90;99.90
42833;DHT22;64089;51.478;5.692;2023-12-20T07:01:54;6.90;99.90
42833;DHT22;64089;51.478;5.692;2023-12-20T07:04:20;6.90;99.90
42833;DHT22;64089;51.478;5.692;2023-12-20T07:06:47;7.00;99.90
42833;DHT22;64089;51.478;5.692;2023-12-20T07:09:13;7.00;99.90
42833;DHT22;64089;51.478;5.692;2023-12-20T07:11:39;7.00;99.90
42833;DHT22;64089;51.478;5.692;2023-12-20T07:14:04;7.00;99.90
42833;DHT22;64089;51.478;5.692;2023-12-20T07:16:31;7.00;99.90
42833;DHT22;64089;51.478;5.692;2023-12-20T07:18:57;7.00;99.90
42833;DHT22;64089;51.478;5.692;2023-12-20T07:21:23;7.00;99.90
42833;DHT22;64089;51.478;5.692;2023-12-20T07:23:48;7.00;99.90
42833;DHT22;64089;51.478;5.692;2023-12-20T07:26:14;7.00;99.90
42833;DHT22;64089;51.478;5.692;2023-12-20T07:28:40;7.00;99.90
42833;DHT22;64089;51.478;5.692;2023-12-20T07:31:06;7.00;99.90
42833;DHT22;64089;51.478;5.692;2023-12-20T07:33:32;7.00;99.90
42833;DHT22;64089;51.478;5.692;2023-12-20T07:35:59;7.00;99.90
42833;DHT22;64089;51.478;5.692;2023-12-20T07:38:24;7.00;99.90
42833;DHT22;64089;51.478;5.692;2023-12-20T07:40:50;7.00;99.90
42833;DHT22;64089;51.478;5.692;2023-12-20T07:43:16;7.00;99.90
42833;DHT22;64089;51.478;5.692;2023-12-20T07:45:41;7.00;99.90
42833;DHT22;64089;51.478;5.692;2023-12-20T07:48:07;7.00;99.90
42833;DHT22;64089;51.478;5.692;2023-12-20T07:50:33;7.10;99.90
42833;DHT22;64089;51.478;5.692;2023-12-20T07:52:58;7.10;99.90
42833;DHT22;64089;51.478;5.692;2023-12-20T07:55:26;7.10;99.90
42833;DHT22;64089;51.478;5.692;2023-12-20T07:57:52;7.10;99.90
42833;DHT22;64089;51.478;5.692;2023-12-20T08:00:18;7.10;99.90
42833;DHT22;64089;51.478;5.692;2023-12-20T08:02:44;7.10;99.90
42833;DHT22;64089;51.478;5.692;2023-12-20T08:05:09;7.10;99.90
42833;DHT22;64089;51.478;5.692;2023-12-20T08:07:35;7.10;99.90
42833;DHT22;64089;51.478;5.692;2023-12-20T08:10:02;7.20;99.90
42833;DHT22;64089;51.478;5.692;2023-12-20T08:12:27;7.20;99.90
42833;DHT22;64089;51.478;5.692;2023-12-20T08:14:54;7.20;99.90
42833;DHT22;64089;51.478;5.692;2023-12-20T08:17:20;7.20;99.90
42833;DHT22;64089;51.478;5.692;2023-12-20T08:19:45;7.20;99.90
42833;DHT22;64089;51.478;5.692;2023-12-20T08:22:11;7.30;99.90
42833;DHT22;64089;51.478;5.692;2023-12-20T08:24:37;7.30;99.90
42833;DHT22;64089;51.478;5.692;2023-12-20T08:27:04;7.30;99.90
42833;DHT22;64089;51.478;5.692;2023-12-20T08:29:29;7.40;99.90
42833;DHT22;64089;51.478;5.692;2023-12-20T08:31:55;7.40;99.90
42833;DHT22;64089;51.478;5.692;2023-12-20T08:34:21;7.40;99.90
42833;DHT22;64089;51.478;5.692;2023-12-20T08:36:47;7.40;99.90
42833;DHT22;64089;51.478;5.692;2023-12-20T08:39:12;7.40;99.90
42833;DHT22;64089;51.478;5.692;2023-12-20T08:41:38;7.40;99.90
42833;DHT22;64089;51.478;5.692;2023-12-20T08:44:04;7.50;99.90
42833;DHT22;64089;51.478;5.692;2023-12-20T08:46:29;7.40;99.90
42833;DHT22;64089;51.478;5.692;2023-12-20T08:48:55;7.50;99.90
42833;DHT22;64089;51.478;5.692;2023-12-20T08:51:21;7.40;99.90
42833;DHT22;64089;51.478;5.692;2023-12-20T08:53:49;7.50;99.90
42833;DHT22;64089;51.478;5.692;2023-12-20T08:56:14;7.40;99.90
42833;DHT22;64089;51.478;5.692;2023-12-20T08:58:41;7.40;99.90
42833;DHT22;64089;51.478;5.692;2023-12-20T09:01:07;7.40;99.90
42833;DHT22;64089;51.478;5.692;2023-12-20T09:03:33;7.40;99.90
42833;DHT22;64089;51.478;5.692;2023-12-20T09:05:58;7.50;99.90
42833;DHT22;64089;51.478;5.692;2023-12-20T09:08:24;7.50;99.90
42833;DHT22;64089;51.478;5.692;2023-12-20T09:10:50;7.50;99.90
42833;DHT22;64089;51.478;5.692;2023-12-20T09:13:15;7.50;99.90
42833;DHT22;64089;51.478;5.692;2023-12-20T09:15:41;7.50;99.90
42833;DHT22;64089;51.478;5.692;2023-12-20T09:18:07;7.50;99.90
42833;DHT22;64089;51.478;5.692;2023-12-20T09:20:33;7.50;99.90
42833;DHT22;64089;51.478;5.692;2023-12-20T09:22:58;7.50;99.90
42833;DHT22;64089;51.478;5.692;2023-12-20T09:25:24;7.40;99.90
42833;DHT22;64089;51.478;5.692;2023-12-20T09:27:51;7.40;99.90
42833;DHT22;64089;51.478;5.692;2023-12-20T09:30:18;7.50;99.90
42833;DHT22;64089;51.478;5.692;2023-12-20T09:32:43;7.60;99.90
42833;DHT22;64089;51.478;5.692;2023-12-20T09:35:09;7.70;99.90
42833;DHT22;64089;51.478;5.692;2023-12-20T09:37:35;7.70;99.90
42833;DHT22;64089;51.478;5.692;2023-12-20T09:40:00;7.70;99.90
42833;DHT22;64089;51.478;5.692;2023-12-20T09:43:02;7.70;99.90
42833;DHT22;64089;51.478;5.692;2023-12-20T09:45:30;7.70;99.90
42833;DHT22;64089;51.478;5.692;2023-12-20T09:47:58;7.70;99.90
42833;DHT22;64089;51.478;5.692;2023-12-20T09:50:23;7.70;99.90
42833;DHT22;64089;51.478;5.692;2023-12-20T09:52:53;7.80;99.90
42833;DHT22;64089;51.478;5.692;2023-12-20T09:55:20;7.70;99.90
42833;DHT22;64089;51.478;5.692;2023-12-20T09:57:48;7.70;99.90
42833;DHT22;64089;51.478;5.692;2023-12-20T10:00:14;7.70;99.90
42833;DHT22;64089;51.478;5.692;2023-12-20T10:02:48;7.70;99.90
42833;DHT22;64089;51.478;5.692;2023-12-20T10:05:17;7.80;99.90
42833;DHT22;64089;51.478;5.692;2023-12-20T10:07:46;7.80;99.90
42833;DHT22;64089;51.478;5.692;2023-12-20T10:10:13;7.70;99.90
42833;DHT22;64089;51.478;5.692;2023-12-20T10:12:39;7.70;99.90
42833;DHT22;64089;51.478;5.692;2023-12-20T10:15:06;7.80;99.90
42833;DHT22;64089;51.478;5.692;2023-12-20T10:17:31;7.80;99.90
42833;DHT22;64089;51.478;5.692;2023-12-20T10:19:57;7.70;99.90
42833;DHT22;64089;51.478;5.692;2023-12-20T10:22:23;7.80;99.90
42833;DHT22;64089;51.478;5.692;2023-12-20T10:24:49;7.80;99.90
42833;DHT22;64089;51.478;5.692;2023-12-20T10:27:18;7.90;99.90
42833;DHT22;64089;51.478;5.692;2023-12-20T10:29:44;8.00;99.90
42833;DHT22;64089;51.478;5.692;2023-12-20T10:34:50;8.00;99.90
42833;DHT22;64089;51.478;5.692;2023-12-20T10:37:15;7.90;99.90
42833;DHT22;64089;51.478;5.692;2023-12-20T10:39:42;7.90;99.90
42833;DHT22;64089;51.478;5.692;2023-12-20T10:42:12;7.80;99.90
42833;DHT22;64089;51.478;5.692;2023-12-20T10:44:38;7.80;99.90
42833;DHT22;64089;51.478;5.692;2023-12-20T10:47:05;7.80;99.90
42833;DHT22;64089;51.478;5.692;2023-12-20T10:49:32;7.90;99.90
42833;DHT22;64089;51.478;5.692;2023-12-20T10:52:02;7.90;99.90
42833;DHT22;64089;51.478;5.692;2023-12-20T10:54:29;8.00;99.90
42833;DHT22;64089;51.478;5.692;2023-12-20T10:56:57;8.00;99.90
42833;DHT22;64089;51.478;5.692;2023-12-20T10:59:23;8.00;99.90
42833;DHT22;64089;51.478;5.692;2023-12-20T11:01:50;8.00;99.90
42833;DHT22;64089;51.478;5.692;2023-12-20T11:04:23;7.90;99.90
42833;DHT22;64089;51.478;5.692;2023-12-20T11:06:58;7.90;99.90
42833;DHT22;64089;51.478;5.692;2023-12-20T11:09:31;7.90;99.90
42833;DHT22;64089;51.478;5.692;2023-12-20T11:12:13;7.90;99.90
42833;DHT22;64089;51.478;5.692;2023-12-20T11:14:50;7.90;99.90
42833;DHT22;64089;51.478;5.692;2023-12-20T11:17:16;7.90;99.90
42833;DHT22;64089;51.478;5.692;2023-12-20T11:22:20;7.90;99.90
42833;DHT22;64089;51.478;5.692;2023-12-20T11:24:47;7.90;99.90
42833;DHT22;64089;51.478;5.692;2023-12-20T11:27:13;8.00;99.90
42833;DHT22;64089;51.478;5.692;2023-12-20T11:29:39;8.10;99.90
42833;DHT22;64089;51.478;5.692;2023-12-20T11:34:51;8.10;99.90
42833;DHT22;64089;51.478;5.692;2023-12-20T11:37:17;8.20;99.90
42833;DHT22;64089;51.478;5.692;2023-12-20T11:39:44;8.30;99.90
42833;DHT22;64089;51.478;5.692;2023-12-20T11:42:10;8.40;99.90
42833;DHT22;64089;51.478;5.692;2023-12-20T11:44:36;8.40;99.90
42833;DHT22;64089;51.478;5.692;2023-12-20T11:47:03;8.20;99.90
42833;DHT22;64089;51.478;5.692;2023-12-20T11:49:29;8.10;99.90
42833;DHT22;64089;51.478;5.692;2023-12-20T11:51:56;8.10;99.90
42833;DHT22;64089;51.478;5.692;2023-12-20T11:54:22;8.00;99.90
42833;DHT22;64089;51.478;5.692;2023-12-20T11:56:48;7.90;99.90
42833;DHT22;64089;51.478;5.692;2023-12-20T11:59:14;7.90;99.90
42833;DHT22;64089;51.478;5.692;2023-12-20T12:01:39;7.90;99.90
42833;DHT22;64089;51.478;5.692;2023-12-20T12:04:06;7.90;99.90
42833;DHT22;64089;51.478;5.692;2023-12-20T12:06:32;7.90;99.90
42833;DHT22;64089;51.478;5.692;2023-12-20T12:08:58;7.90;99.90
42833;DHT22;64089;51.478;5.692;2023-12-20T12:11:23;7.90;99.90
42833;DHT22;64089;51.478;5.692;2023-12-20T12:13:49;7.80;99.90
42833;DHT22;64089;51.478;5.692;2023-12-20T12:16:19;7.80;99.90
42833;DHT22;64089;51.478;5.692;2023-12-20T12:18:45;7.80;99.90
42833;DHT22;64089;51.478;5.692;2023-12-20T12:21:18;7.80;99.90
42833;DHT22;64089;51.478;5.692;2023-12-20T12:23:44;7.80;99.90
42833;DHT22;64089;51.478;5.692;2023-12-20T12:26:09;7.80;99.90
42833;DHT22;64089;51.478;5.692;2023-12-20T12:28:35;7.80;99.90
42833;DHT22;64089;51.478;5.692;2023-12-20T12:31:01;7.90;99.90
42833;DHT22;64089;51.478;5.692;2023-12-20T12:33:26;7.90;99.90
42833;DHT22;64089;51.478;5.692;2023-12-20T12:35:52;7.80;99.90
42833;DHT22;64089;51.478;5.692;2023-12-20T12:38:21;7.80;99.90
42833;DHT22;64089;51.478;5.692;2023-12-20T12:40:47;7.80;99.90
42833;DHT22;64089;51.478;5.692;2023-12-20T12:43:13;7.80;99.90
42833;DHT22;64089;51.478;5.692;2023-12-20T12:45:38;7.80;99.90
42833;DHT22;64089;51.478;5.692;2023-12-20T12:48:04;7.80;99.90
42833;DHT22;64089;51.478;5.692;2023-12-20T12:50:30;7.80;99.90
42833;DHT22;64089;51.478;5.692;2023-12-20T12:52:56;7.80;99.90
42833;DHT22;64089;51.478;5.692;2023-12-20T12:55:22;7.80;99.90
42833;DHT22;64089;51.478;5.692;2023-12-20T12:57:47;7.90;99.90
42833;DHT22;64089;51.478;5.692;2023-12-20T13:00:13;7.90;99.90
42833;DHT22;64089;51.478;5.692;2023-12-20T13:02:39;7.90;99.90
42833;DHT22;64089;51.478;5.692;2023-12-20T13:05:08;7.90;99.90
42833;DHT22;64089;51.478;5.692;2023-12-20T13:07:34;7.90;99.90
42833;DHT22;64089;51.478;5.692;2023-12-20T13:10:00;8.00;99.90
42833;DHT22;64089;51.478;5.692;2023-12-20T13:12:26;8.00;99.90
42833;DHT22;64089;51.478;5.692;2023-12-20T13:14:51;8.10;99.90
42833;DHT22;64089;51.478;5.692;2023-12-20T13:17:17;8.10;99.90
42833;DHT22;64089;51.478;5.692;2023-12-20T13:19:43;8.10;99.90
42833;DHT22;64089;51.478;5.692;2023-12-20T13:22:08;8.20;99.90
42833;DHT22;64089;51.478;5.692;2023-12-20T13:24:34;8.30;99.90
42833;DHT22;64089;51.478;5.692;2023-12-20T13:27:00;8.30;99.90
42833;DHT22;64089;51.478;5.692;2023-12-20T13:29:25;8.40;99.90
42833;DHT22;64089;51.478;5.692;2023-12-20T13:31:52;8.40;99.90
42833;DHT22;64089;51.478;5.692;2023-12-20T13:34:18;8.40;99.90
42833;DHT22;64089;51.478;5.692;2023-12-20T13:36:44;8.50;99.90
42833;DHT22;64089;51.478;5.692;2023-12-20T13:39:15;8.40;99.90
42833;DHT22;64089;51.478;5.692;2023-12-20T13:41:40;8.40;99.90
42833;DHT22;64089;51.478;5.692;2023-12-20T13:44:06;8.40;99.90
42833;DHT22;64089;51.478;5.692;2023-12-20T13:46:32;8.40;99.90
42833;DHT22;64089;51.478;5.692;2023-12-20T13:48:57;8.50;99.90
42833;DHT22;64089;51.478;5.692;2023-12-20T13:51:23;8.50;99.90
42833;DHT22;64089;51.478;5.692;2023-12-20T13:53:49;8.50;99.90
42833;DHT22;64089;51.478;5.692;2023-12-20T13:56:15;8.50;99.90
42833;DHT22;64089;51.478;5.692;2023-12-20T13:58:41;8.50;99.90
42833;DHT22;64089;51.478;5.692;2023-12-20T14:01:11;8.50;99.90
42833;DHT22;64089;51.478;5.692;2023-12-20T14:03:37;8.50;99.90
42833;DHT22;64089;51.478;5.692;2023-12-20T14:06:03;8.50;99.90
42833;DHT22;64089;51.478;5.692;2023-12-20T14:08:29;8.50;99.90
42833;DHT22;64089;51.478;5.692;2023-12-20T14:10:54;8.50;99.90
42833;DHT22;64089;51.478;5.692;2023-12-20T14:13:20;8.40;99.90
42833;DHT22;64089;51.478;5.692;2023-12-20T14:15:46;8.50;99.90
42833;DHT22;64089;51.478;5.692;2023-12-20T14:18:12;8.50;99.90
42833;DHT22;64089;51.478;5.692;2023-12-20T14:20:40;8.50;99.90
42833;DHT22;64089;51.478;5.692;2023-12-20T14:23:08;8.50;99.90
42833;DHT22;64089;51.478;5.692;2023-12-20T14:25:35;8.50;99.90
42833;DHT22;64089;51.478;5.692;2023-12-20T14:28:06;8.50;99.90
42833;DHT22;64089;51.478;5.692;2023-12-20T14:30:31;8.50;99.90
42833;DHT22;64089;51.478;5.692;2023-12-20T14:32:57;8.40;99.90
42833;DHT22;64089;51.478;5.692;2023-12-20T14:35:23;8.50;99.90
42833;DHT22;64089;51.478;5.692;2023-12-20T14:37:49;8.50;99.90
42833;DHT22;64089;51.478;5.692;2023-12-20T14:40:15;8.50;99.90
42833;DHT22;64089;51.478;5.692;2023-12-20T14:42:45;8.40;99.90
42833;DHT22;64089;51.478;5.692;2023-12-20T14:45:11;8.50;99.90
42833;DHT22;64089;51.478;5.692;2023-12-20T14:47:38;8.50;99.90
42833;DHT22;64089;51.478;5.692;2023-12-20T14:50:04;8.50;99.90
42833;DHT22;64089;51.478;5.692;2023-12-20T14:52:31;8.40;99.90
42833;DHT22;64089;51.478;5.692;2023-12-20T14:54:57;8.40;99.90
42833;DHT22;64089;51.478;5.692;2023-12-20T14:57:23;8.40;99.90
42833;DHT22;64089;51.478;5.692;2023-12-20T14:59:48;8.50;99.90
42833;DHT22;64089;51.478;5.692;2023-12-20T15:02:14;8.50;99.90
42833;DHT22;64089;51.478;5.692;2023-12-20T15:04:40;8.50;99.90
42833;DHT22;64089;51.478;5.692;2023-12-20T15:07:06;8.50;99.90
42833;DHT22;64089;51.478;5.692;2023-12-20T15:09:32;8.50;99.90
42833;DHT22;64089;51.478;5.692;2023-12-20T15:11:57;8.50;99.90
42833;DHT22;64089;51.478;5.692;2023-12-20T15:14:23;8.60;99.90
42833;DHT22;64089;51.478;5.692;2023-12-20T15:16:49;8.50;99.90
42833;DHT22;64089;51.478;5.692;2023-12-20T15:19:15;8.50;99.90
42833;DHT22;64089;51.478;5.692;2023-12-20T15:21:41;8.60;99.90
42833;DHT22;64089;51.478;5.692;2023-12-20T15:24:11;8.60;99.90
42833;DHT22;64089;51.478;5.692;2023-12-20T15:26:42;8.60;99.90
42833;DHT22;64089;51.478;5.692;2023-12-20T15:29:08;8.60;99.90
42833;DHT22;64089;51.478;5.692;2023-12-20T15:31:35;8.70;99.90
42833;DHT22;64089;51.478;5.692;2023-12-20T15:34:02;8.60;99.90
42833;DHT22;64089;51.478;5.692;2023-12-20T15:36:27;8.60;99.90
42833;DHT22;64089;51.478;5.692;2023-12-20T15:38:53;8.60;99.90
42833;DHT22;64089;51.478;5.692;2023-12-20T15:41:19;8.60;99.90
42833;DHT22;64089;51.478;5.692;2023-12-20T15:43:45;8.60;99.90
42833;DHT22;64089;51.478;5.692;2023-12-20T15:46:11;8.60;99.90